DLH05E LPPR-EDDF
Flight info
| Callsign | DLH05E |
|---|---|
| Flight time | N/A |
| Altitude | 34000 |
| Route | TURON P600 ASDEB DCT LOTEE DCT AZFIC UN741 MOKOR UN873 OBATO UM163 TSU UN858 OQQAL DCT RANUX/N0450F350 DCT VALEK DCT LIPNI DCT LIMGO Z111 TUTOV/N0406F230 Z111 RAMOB IMCOM1A |
| Aircraft | A321/M-SDE3FGHIRWY/LB1 |
Departure
| Time | N/A |
|---|---|
| Airport | Francisco de Sá Carneiro Airport (LPPR) |
Arrival
| Time | 2026-05-05 18:27 |
|---|---|
| Airport | Frankfurt Main Airport (EDDF) |
| Time | Latitude | Longitude | Altitude | Speed | Heading |
|---|---|---|---|---|---|
| 2026-05-05 17:19 | 47.43301 | -1.47577 | 33922 ft | 450 kts | 53° |
| 2026-05-05 17:19 | 47.47142 | -1.40323 | 33917 ft | 450 kts | 54° |
| 2026-05-05 17:20 | 47.50981 | -1.33038 | 33924 ft | 449 kts | 54° |
| 2026-05-05 17:20 | 47.54789 | -1.25776 | 33922 ft | 449 kts | 54° |
| 2026-05-05 17:21 | 47.58617 | -1.18468 | 33923 ft | 448 kts | 54° |
| 2026-05-05 17:22 | 47.64343 | -1.07528 | 33918 ft | 448 kts | 54° |
| 2026-05-05 17:22 | 47.68151 | -1.00217 | 33923 ft | 447 kts | 54° |
| 2026-05-05 17:23 | 47.71947 | -0.92913 | 33927 ft | 447 kts | 54° |
| 2026-05-05 17:23 | 47.75741 | -0.85589 | 33928 ft | 447 kts | 54° |
| 2026-05-05 17:24 | 47.79537 | -0.78245 | 33904 ft | 446 kts | 54° |
| 2026-05-05 17:24 | 47.83275 | -0.70988 | 34218 ft | 444 kts | 54° |
| 2026-05-05 17:24 | 47.85151 | -0.67336 | 34428 ft | 443 kts | 54° |
| 2026-05-05 17:25 | 47.87025 | -0.63678 | 34584 ft | 444 kts | 54° |
| 2026-05-05 17:25 | 47.90788 | -0.56307 | 34874 ft | 445 kts | 54° |
| 2026-05-05 17:25 | 47.92657 | -0.52646 | 35015 ft | 446 kts | 54° |
| 2026-05-05 17:26 | 47.94517 | -0.49006 | 35144 ft | 447 kts | 54° |
| 2026-05-05 17:26 | 47.96404 | -0.45309 | 35282 ft | 448 kts | 54° |
| 2026-05-05 17:26 | 47.98293 | -0.41604 | 35430 ft | 448 kts | 54° |
| 2026-05-05 17:26 | 48.00177 | -0.37904 | 35552 ft | 449 kts | 54° |
| 2026-05-05 17:27 | 48.02067 | -0.34181 | 35687 ft | 449 kts | 54° |
| 2026-05-05 17:27 | 48.03956 | -0.30455 | 35848 ft | 449 kts | 54° |
| 2026-05-05 17:27 | 48.05834 | -0.26709 | 35890 ft | 450 kts | 57° |
| 2026-05-05 17:28 | 48.08763 | -0.18478 | 35897 ft | 448 kts | 66° |
| 2026-05-05 17:28 | 48.11415 | -0.10010 | 35903 ft | 448 kts | 66° |
| 2026-05-05 17:29 | 48.14064 | -0.01572 | 35903 ft | 448 kts | 66° |
| 2026-05-05 17:29 | 48.16698 | 0.06842 | 35892 ft | 449 kts | 66° |
| 2026-05-05 17:30 | 48.19345 | 0.15339 | 35902 ft | 450 kts | 66° |
| 2026-05-05 17:30 | 48.21987 | 0.23873 | 35903 ft | 450 kts | 67° |
| 2026-05-05 17:31 | 48.24617 | 0.32392 | 35911 ft | 450 kts | 67° |
| 2026-05-05 17:31 | 48.27234 | 0.40879 | 35907 ft | 451 kts | 67° |
| 2026-05-05 17:32 | 48.29865 | 0.49436 | 35905 ft | 451 kts | 67° |
| 2026-05-05 17:32 | 48.32484 | 0.58008 | 35901 ft | 451 kts | 67° |
| 2026-05-05 17:33 | 48.35097 | 0.66586 | 35899 ft | 451 kts | 67° |
| 2026-05-05 17:33 | 48.37689 | 0.75109 | 35891 ft | 451 kts | 67° |
| 2026-05-05 17:34 | 48.40290 | 0.83705 | 35893 ft | 451 kts | 67° |
| 2026-05-05 17:34 | 48.42882 | 0.92301 | 35881 ft | 450 kts | 67° |
| 2026-05-05 17:35 | 48.45474 | 1.00913 | 35885 ft | 450 kts | 68° |
| 2026-05-05 17:35 | 48.48057 | 1.09538 | 35882 ft | 450 kts | 68° |
| 2026-05-05 17:36 | 48.50616 | 1.18121 | 35885 ft | 450 kts | 68° |
| 2026-05-05 17:36 | 48.53182 | 1.26724 | 35874 ft | 450 kts | 68° |
| 2026-05-05 17:37 | 48.55738 | 1.35347 | 35865 ft | 450 kts | 68° |
| 2026-05-05 17:37 | 48.58295 | 1.43983 | 35859 ft | 451 kts | 68° |
| 2026-05-05 17:38 | 48.60418 | 1.51199 | 35860 ft | 451 kts | 68° |
| 2026-05-05 17:38 | 48.63381 | 1.61298 | 35857 ft | 452 kts | 68° |
| 2026-05-05 17:39 | 48.65443 | 1.68569 | 35861 ft | 451 kts | 70° |
| 2026-05-05 17:39 | 48.67614 | 1.77476 | 35849 ft | 450 kts | 72° |
| 2026-05-05 17:40 | 48.69669 | 1.86449 | 35859 ft | 451 kts | 72° |
| 2026-05-05 17:40 | 48.71774 | 1.95386 | 35860 ft | 451 kts | 72° |
| 2026-05-05 17:41 | 48.73929 | 2.04321 | 35865 ft | 451 kts | 72° |
| 2026-05-05 17:41 | 48.76018 | 2.13248 | 35861 ft | 450 kts | 74° |
| 2026-05-05 17:42 | 48.77730 | 2.22360 | 35859 ft | 449 kts | 77° |
| 2026-05-05 17:42 | 48.79264 | 2.31533 | 35865 ft | 449 kts | 77° |
| 2026-05-05 17:43 | 48.80843 | 2.40707 | 35857 ft | 449 kts | 77° |
| 2026-05-05 17:43 | 48.82482 | 2.49871 | 35857 ft | 450 kts | 76° |
| 2026-05-05 17:44 | 48.84118 | 2.58978 | 35861 ft | 450 kts | 77° |
| 2026-05-05 17:44 | 48.85732 | 2.68162 | 35852 ft | 450 kts | 77° |
| 2026-05-05 17:45 | 48.87336 | 2.77347 | 35849 ft | 450 kts | 77° |
| 2026-05-05 17:45 | 48.88939 | 2.86572 | 35843 ft | 450 kts | 77° |
| 2026-05-05 17:46 | 48.90540 | 2.95780 | 35845 ft | 450 kts | 77° |
| 2026-05-05 17:46 | 48.92132 | 3.04951 | 35837 ft | 450 kts | 77° |
| 2026-05-05 17:47 | 48.93710 | 3.14157 | 35835 ft | 450 kts | 77° |
| 2026-05-05 17:47 | 48.95288 | 3.23401 | 35830 ft | 450 kts | 77° |
| 2026-05-05 17:48 | 48.96854 | 3.32621 | 35831 ft | 450 kts | 77° |
| 2026-05-05 17:48 | 48.98414 | 3.41869 | 35830 ft | 451 kts | 77° |
| 2026-05-05 17:49 | 48.99968 | 3.51131 | 35829 ft | 451 kts | 77° |
| 2026-05-05 17:49 | 49.01510 | 3.60361 | 35813 ft | 451 kts | 77° |
| 2026-05-05 17:50 | 49.03052 | 3.69646 | 35816 ft | 452 kts | 78° |
| 2026-05-05 17:50 | 49.04592 | 3.78942 | 35822 ft | 452 kts | 78° |
| 2026-05-05 17:51 | 49.06126 | 3.88247 | 35823 ft | 452 kts | 78° |
| 2026-05-05 17:51 | 49.07653 | 3.97551 | 35827 ft | 452 kts | 78° |
| 2026-05-05 17:52 | 49.09162 | 4.06796 | 35831 ft | 453 kts | 78° |
| 2026-05-05 17:52 | 49.10667 | 4.16139 | 35832 ft | 453 kts | 78° |
| 2026-05-05 17:53 | 49.12158 | 4.25465 | 35830 ft | 453 kts | 78° |
| 2026-05-05 17:53 | 49.13669 | 4.34824 | 35830 ft | 453 kts | 76° |
| 2026-05-05 17:54 | 49.15965 | 4.43825 | 35815 ft | 455 kts | 69° |
| 2026-05-05 17:54 | 49.18403 | 4.52764 | 35811 ft | 456 kts | 70° |
| 2026-05-05 17:55 | 49.20812 | 4.61696 | 35814 ft | 457 kts | 70° |
| 2026-05-05 17:55 | 49.23232 | 4.70706 | 35822 ft | 457 kts | 70° |
| 2026-05-05 17:56 | 49.25651 | 4.79736 | 35829 ft | 456 kts | 70° |
| 2026-05-05 17:56 | 49.28039 | 4.88651 | 35830 ft | 456 kts | 70° |
| 2026-05-05 17:57 | 49.30453 | 4.97658 | 35822 ft | 457 kts | 70° |
| 2026-05-05 17:57 | 49.32857 | 5.06707 | 35828 ft | 457 kts | 70° |
| 2026-05-05 17:58 | 49.35231 | 5.15751 | 35832 ft | 457 kts | 70° |
| 2026-05-05 17:58 | 49.37613 | 5.24832 | 35836 ft | 458 kts | 70° |
| 2026-05-05 17:59 | 49.39996 | 5.33833 | 35837 ft | 458 kts | 69° |
| 2026-05-05 17:59 | 49.42698 | 5.42716 | 35836 ft | 459 kts | 66° |
| 2026-05-05 18:00 | 49.45593 | 5.51479 | 35841 ft | 459 kts | 65° |
| 2026-05-05 18:00 | 49.48447 | 5.60273 | 35820 ft | 457 kts | 66° |
| 2026-05-05 18:00 | 49.49834 | 5.64661 | 35293 ft | 455 kts | 67° |
| 2026-05-05 18:01 | 49.51203 | 5.69043 | 34705 ft | 453 kts | 67° |
| 2026-05-05 18:01 | 49.52554 | 5.73395 | 34143 ft | 449 kts | 67° |
| 2026-05-05 18:01 | 49.53870 | 5.77644 | 33546 ft | 446 kts | 68° |
| 2026-05-05 18:01 | 49.55205 | 5.81950 | 32835 ft | 444 kts | 67° |
| 2026-05-05 18:02 | 49.56536 | 5.86239 | 32049 ft | 444 kts | 67° |
| 2026-05-05 18:02 | 49.57874 | 5.90558 | 31215 ft | 445 kts | 67° |
| 2026-05-05 18:02 | 49.59210 | 5.94871 | 30385 ft | 446 kts | 66° |
| 2026-05-05 18:02 | 49.60549 | 5.99191 | 29501 ft | 447 kts | 66° |
| 2026-05-05 18:03 | 49.61890 | 6.03517 | 28520 ft | 449 kts | 66° |
| 2026-05-05 18:03 | 49.63240 | 6.07874 | 27430 ft | 453 kts | 66° |
| 2026-05-05 18:03 | 49.64600 | 6.12280 | 26813 ft | 457 kts | 66° |
| 2026-05-05 18:03 | 49.65975 | 6.16754 | 26400 ft | 463 kts | 66° |
| 2026-05-05 18:04 | 49.67355 | 6.21261 | 26016 ft | 466 kts | 66° |
| 2026-05-05 18:04 | 49.68742 | 6.25797 | 25643 ft | 469 kts | 66° |
| 2026-05-05 18:04 | 49.70137 | 6.30362 | 25383 ft | 471 kts | 66° |
| 2026-05-05 18:04 | 49.71533 | 6.34948 | 25122 ft | 473 kts | 67° |
| 2026-05-05 18:05 | 49.72931 | 6.39542 | 24887 ft | 471 kts | 67° |
| 2026-05-05 18:05 | 49.74318 | 6.44089 | 24779 ft | 466 kts | 67° |
| 2026-05-05 18:05 | 49.75704 | 6.48645 | 24814 ft | 472 kts | 67° |
| 2026-05-05 18:05 | 49.77087 | 6.53197 | 24796 ft | 473 kts | 67° |
| 2026-05-05 18:06 | 49.78475 | 6.57768 | 24347 ft | 466 kts | 67° |
| 2026-05-05 18:06 | 49.79402 | 6.60829 | 23753 ft | 465 kts | 67° |
| 2026-05-05 18:06 | 49.81228 | 6.66888 | 22879 ft | 471 kts | 67° |
| 2026-05-05 18:06 | 49.82599 | 6.71464 | 22256 ft | 470 kts | 67° |
| 2026-05-05 18:07 | 49.83965 | 6.76027 | 21644 ft | 466 kts | 66° |
| 2026-05-05 18:07 | 49.85332 | 6.80593 | 21046 ft | 463 kts | 66° |
| 2026-05-05 18:07 | 49.86679 | 6.85107 | 20453 ft | 459 kts | 66° |
| 2026-05-05 18:07 | 49.88016 | 6.89590 | 19863 ft | 456 kts | 66° |
| 2026-05-05 18:08 | 49.89344 | 6.94044 | 19344 ft | 454 kts | 66° |
| 2026-05-05 18:08 | 49.90664 | 6.98473 | 18783 ft | 451 kts | 66° |
| 2026-05-05 18:08 | 49.91975 | 7.02877 | 18244 ft | 449 kts | 66° |
| 2026-05-05 18:08 | 49.93280 | 7.07278 | 17661 ft | 446 kts | 66° |
| 2026-05-05 18:09 | 49.94569 | 7.11641 | 17056 ft | 443 kts | 66° |
| 2026-05-05 18:09 | 49.95848 | 7.15977 | 16452 ft | 440 kts | 66° |
| 2026-05-05 18:09 | 49.97118 | 7.20288 | 15827 ft | 437 kts | 66° |
| 2026-05-05 18:09 | 49.98376 | 7.24568 | 15202 ft | 434 kts | 66° |
| 2026-05-05 18:10 | 49.99623 | 7.28816 | 14588 ft | 431 kts | 66° |
| 2026-05-05 18:10 | 50.00862 | 7.33049 | 13975 ft | 429 kts | 66° |
| 2026-05-05 18:10 | 50.02077 | 7.37210 | 13366 ft | 427 kts | 66° |
| 2026-05-05 18:10 | 50.03302 | 7.41402 | 12704 ft | 424 kts | 66° |
| 2026-05-05 18:11 | 50.04516 | 7.45554 | 12055 ft | 419 kts | 65° |
| 2026-05-05 18:11 | 50.05714 | 7.49658 | 11420 ft | 415 kts | 66° |
| 2026-05-05 18:11 | 50.06898 | 7.53730 | 10952 ft | 410 kts | 66° |
| 2026-05-05 18:11 | 50.08065 | 7.57776 | 10788 ft | 410 kts | 67° |
| 2026-05-05 18:12 | 50.08937 | 7.62001 | 10816 ft | 409 kts | 79° |
| 2026-05-05 18:12 | 50.09217 | 7.66310 | 10665 ft | 390 kts | 92° |
| 2026-05-05 18:12 | 50.08936 | 7.70389 | 10543 ft | 369 kts | 104° |
| 2026-05-05 18:12 | 50.08210 | 7.74091 | 10410 ft | 349 kts | 114° |
| 2026-05-05 18:13 | 50.07127 | 7.77367 | 10302 ft | 331 kts | 125° |
| 2026-05-05 18:13 | 50.05862 | 7.80243 | 10185 ft | 316 kts | 127° |
| 2026-05-05 18:13 | 50.04635 | 7.83001 | 10055 ft | 303 kts | 127° |
| 2026-05-05 18:13 | 50.03454 | 7.85659 | 9830 ft | 295 kts | 128° |
| 2026-05-05 18:14 | 50.02349 | 7.88332 | 9464 ft | 294 kts | 121° |
| 2026-05-05 18:14 | 50.01503 | 7.91289 | 8912 ft | 308 kts | 110° |
| 2026-05-05 18:14 | 50.00976 | 7.94633 | 8818 ft | 325 kts | 100° |
| 2026-05-05 18:14 | 50.00839 | 7.98168 | 8839 ft | 331 kts | 89° |
| 2026-05-05 18:15 | 50.01115 | 8.01672 | 8846 ft | 333 kts | 78° |
| 2026-05-05 18:15 | 50.01808 | 8.05125 | 8846 ft | 334 kts | 69° |
| 2026-05-05 18:15 | 50.02641 | 8.08510 | 8850 ft | 334 kts | 70° |
| 2026-05-05 18:15 | 50.03466 | 8.11892 | 8853 ft | 334 kts | 70° |
| 2026-05-05 18:16 | 50.04288 | 8.15277 | 8858 ft | 334 kts | 70° |
| 2026-05-05 18:16 | 50.05110 | 8.18662 | 8860 ft | 334 kts | 70° |
| 2026-05-05 18:16 | 50.05931 | 8.22040 | 8746 ft | 332 kts | 70° |
| 2026-05-05 18:16 | 50.06743 | 8.25393 | 8330 ft | 328 kts | 70° |
| 2026-05-05 18:17 | 50.07533 | 8.28671 | 8081 ft | 328 kts | 70° |
| 2026-05-05 18:17 | 50.08344 | 8.32040 | 7821 ft | 327 kts | 70° |
| 2026-05-05 18:17 | 50.09129 | 8.35301 | 7570 ft | 325 kts | 70° |
| 2026-05-05 18:17 | 50.09924 | 8.38598 | 7324 ft | 324 kts | 70° |
| 2026-05-05 18:18 | 50.10715 | 8.41868 | 7073 ft | 323 kts | 70° |
| 2026-05-05 18:18 | 50.11506 | 8.45146 | 6781 ft | 322 kts | 71° |
| 2026-05-05 18:18 | 50.12286 | 8.48393 | 6527 ft | 319 kts | 71° |
| 2026-05-05 18:18 | 50.13060 | 8.51623 | 6232 ft | 317 kts | 71° |
| 2026-05-05 18:19 | 50.13827 | 8.54829 | 5846 ft | 315 kts | 71° |
| 2026-05-05 18:19 | 50.14589 | 8.58019 | 5461 ft | 313 kts | 71° |
| 2026-05-05 18:19 | 50.15344 | 8.61199 | 5079 ft | 312 kts | 71° |
| 2026-05-05 18:19 | 50.16088 | 8.64344 | 4707 ft | 307 kts | 71° |
| 2026-05-05 18:20 | 50.16803 | 8.67371 | 4419 ft | 286 kts | 70° |
| 2026-05-05 18:20 | 50.17465 | 8.70167 | 4185 ft | 264 kts | 70° |
| 2026-05-05 18:20 | 50.18085 | 8.72778 | 4022 ft | 250 kts | 70° |
| 2026-05-05 18:20 | 50.18679 | 8.75286 | 4010 ft | 246 kts | 70° |
| 2026-05-05 18:21 | 50.19182 | 8.77829 | 4008 ft | 245 kts | 86° |
| 2026-05-05 18:21 | 50.18940 | 8.80402 | 4012 ft | 240 kts | 118° |
| 2026-05-05 18:21 | 50.17902 | 8.82346 | 4011 ft | 234 kts | 150° |
| 2026-05-05 18:21 | 50.16432 | 8.83419 | 4011 ft | 233 kts | 162° |
| 2026-05-05 18:22 | 50.14862 | 8.83800 | 4013 ft | 228 kts | 189° |
| 2026-05-05 18:22 | 50.13383 | 8.83215 | 4018 ft | 213 kts | 205° |
| 2026-05-05 18:22 | 50.12125 | 8.82033 | 4012 ft | 210 kts | 220° |
| 2026-05-05 18:22 | 50.11150 | 8.80376 | 4011 ft | 209 kts | 236° |
| 2026-05-05 18:23 | 50.10504 | 8.78343 | 3885 ft | 209 kts | 249° |
| 2026-05-05 18:23 | 50.10005 | 8.76223 | 3638 ft | 206 kts | 250° |
| 2026-05-05 18:23 | 50.09526 | 8.74183 | 3366 ft | 196 kts | 250° |
| 2026-05-05 18:23 | 50.09217 | 8.72876 | 3171 ft | 191 kts | 250° |
| 2026-05-05 18:24 | 50.08619 | 8.70344 | 2806 ft | 182 kts | 250° |
| 2026-05-05 18:24 | 50.08190 | 8.68522 | 2531 ft | 177 kts | 251° |
| 2026-05-05 18:24 | 50.07771 | 8.66753 | 2292 ft | 172 kts | 250° |
| 2026-05-05 18:24 | 50.07356 | 8.65004 | 2068 ft | 171 kts | 250° |
| 2026-05-05 18:25 | 50.06950 | 8.63296 | 1809 ft | 164 kts | 250° |
| 2026-05-05 18:25 | 50.06822 | 8.62758 | 1727 ft | 162 kts | 250° |
| 2026-05-05 18:25 | 50.06207 | 8.60181 | 1364 ft | 146 kts | 250° |
| 2026-05-05 18:25 | 50.05975 | 8.59209 | 1210 ft | 145 kts | 250° |
| 2026-05-05 18:26 | 50.05510 | 8.57251 | 928 ft | 146 kts | 250° |
| 2026-05-05 18:26 | 50.05271 | 8.56249 | 781 ft | 146 kts | 250° |
| 2026-05-05 18:26 | 50.04806 | 8.54302 | 523 ft | 144 kts | 250° |
| 2026-05-05 18:26 | 50.04458 | 8.52853 | 361 ft | 140 kts | 250° |
| 2026-05-05 18:27 | 50.04161 | 8.51614 | 333 ft | 90 kts | 250° |
| 2026-05-05 18:27 | 50.04048 | 8.51132 | 326 ft | 60 kts | 249° |
| 2026-05-05 18:27 | 50.03917 | 8.50605 | 323 ft | 43 kts | 248° |
| 2026-05-05 18:27 | 50.03785 | 8.50310 | 320 ft | 23 kts | 223° |
| 2026-05-05 18:28 | 50.03626 | 8.50239 | 324 ft | 10 kts | 106° |
| 2026-05-05 18:28 | 50.03641 | 8.50341 | 323 ft | 9 kts | 71° |
| 2026-05-05 18:28 | 50.03662 | 8.50431 | 327 ft | 9 kts | 70° |
| 2026-05-05 18:29 | 50.03685 | 8.50526 | 325 ft | 12 kts | 69° |
| 2026-05-05 18:29 | 50.03717 | 8.50658 | 330 ft | 14 kts | 69° |
| 2026-05-05 18:29 | 50.03751 | 8.50801 | 330 ft | 14 kts | 70° |
| 2026-05-05 18:29 | 50.03794 | 8.50979 | 333 ft | 22 kts | 70° |
| 2026-05-05 18:30 | 50.03849 | 8.51210 | 335 ft | 23 kts | 69° |
| 2026-05-05 18:30 | 50.03907 | 8.51449 | 335 ft | 24 kts | 69° |
| 2026-05-05 18:30 | 50.03966 | 8.51692 | 334 ft | 24 kts | 69° |
| 2026-05-05 18:30 | 50.04024 | 8.51939 | 333 ft | 24 kts | 70° |
| 2026-05-05 18:31 | 50.04083 | 8.52180 | 352 ft | 23 kts | 69° |
| 2026-05-05 18:31 | 50.04138 | 8.52413 | 346 ft | 23 kts | 69° |
| 2026-05-05 18:31 | 50.04194 | 8.52645 | 352 ft | 26 kts | 69° |
| 2026-05-05 18:31 | 50.04258 | 8.52913 | 358 ft | 26 kts | 70° |
| 2026-05-05 18:32 | 50.04319 | 8.53170 | 366 ft | 24 kts | 69° |
| 2026-05-05 18:32 | 50.04372 | 8.53386 | 372 ft | 19 kts | 69° |
| 2026-05-05 18:32 | 50.04400 | 8.53573 | 375 ft | 19 kts | 84° |
| 2026-05-05 18:32 | 50.04416 | 8.53808 | 375 ft | 22 kts | 84° |
| 2026-05-05 18:33 | 50.04431 | 8.54052 | 375 ft | 23 kts | 84° |
| 2026-05-05 18:33 | 50.04447 | 8.54299 | 375 ft | 20 kts | 84° |
| 2026-05-05 18:33 | 50.04446 | 8.54520 | 367 ft | 22 kts | 105° |
| 2026-05-05 18:33 | 50.04381 | 8.54695 | 361 ft | 9 kts | 134° |
| 2026-05-05 18:34 | 50.04344 | 8.54743 | 359 ft | 5 kts | 145° |
| 2026-05-05 18:34 | 50.04339 | 8.54748 | 362 ft | 0 kts | 147° |
| 2026-05-05 18:35 | 50.04317 | 8.54768 | 357 ft | 7 kts | 153° |
| 2026-05-05 18:36 | 50.04249 | 8.54810 | 358 ft | 14 kts | 161° |
| 2026-05-05 18:36 | 50.04153 | 8.54864 | 354 ft | 16 kts | 163° |
| 2026-05-05 18:36 | 50.04044 | 8.54925 | 356 ft | 16 kts | 158° |
| 2026-05-05 18:36 | 50.03945 | 8.54985 | 356 ft | 13 kts | 159° |
| 2026-05-05 18:37 | 50.03911 | 8.55004 | 354 ft | 0 kts | 160° |
| 2026-05-05 18:38 | 50.03901 | 8.55010 | 355 ft | 6 kts | 159° |
| 2026-05-05 18:38 | 50.03849 | 8.55075 | 349 ft | 11 kts | 118° |
| 2026-05-05 18:38 | 50.03868 | 8.55193 | 356 ft | 12 kts | 69° |
| 2026-05-05 18:39 | 50.03904 | 8.55346 | 352 ft | 16 kts | 70° |
| 2026-05-05 18:39 | 50.03945 | 8.55517 | 352 ft | 17 kts | 70° |
| 2026-05-05 18:39 | 50.03988 | 8.55704 | 352 ft | 19 kts | 69° |
| 2026-05-05 18:39 | 50.04026 | 8.55860 | 358 ft | 11 kts | 69° |
| 2026-05-05 18:40 | 50.04033 | 8.55886 | 353 ft | 0 kts | 69° |
| 2026-05-05 18:44 | 50.04039 | 8.55909 | 360 ft | 6 kts | 68° |
| 2026-05-05 18:44 | 50.04060 | 8.55998 | 353 ft | 11 kts | 70° |
| 2026-05-05 18:44 | 50.04088 | 8.56116 | 355 ft | 12 kts | 69° |
| 2026-05-05 18:45 | 50.04119 | 8.56242 | 360 ft | 13 kts | 69° |
| 2026-05-05 18:45 | 50.04188 | 8.56270 | 357 ft | 11 kts | 338° |
| 2026-05-05 18:45 | 50.04221 | 8.56251 | 360 ft | 0 kts | 339° |
| 2026-05-05 18:46 | 50.04232 | 8.56245 | 359 ft | 4 kts | 339° |
| 2026-05-05 18:46 | 50.04260 | 8.56228 | 359 ft | 5 kts | 340° |
| 2026-05-05 18:47 | 50.04285 | 8.56195 | 356 ft | 5 kts | 298° |
| 2026-05-05 18:47 | 50.04298 | 8.56130 | 361 ft | 7 kts | 296° |
| 2026-05-05 18:47 | 50.04330 | 8.56068 | 360 ft | 8 kts | 325° |
| 2026-05-05 18:47 | 50.04380 | 8.56034 | 360 ft | 8 kts | 344° |
| 2026-05-05 18:48 | 50.04430 | 8.56053 | 359 ft | 7 kts | 63° |
| 2026-05-05 18:48 | 50.04454 | 8.56129 | 357 ft | 6 kts | 66° |
| 2026-05-05 18:48 | 50.04472 | 8.56198 | 362 ft | 7 kts | 69° |
| 2026-05-05 18:48 | 50.04509 | 8.56215 | 360 ft | 6 kts | 341° |
| 2026-05-05 18:49 | 50.04535 | 8.56219 | 363 ft | 1 kts | 32° |
| 2026-05-05 18:49 | 50.04539 | 8.56223 | 361 ft | 0 kts | 34° |